Time;durP1;ratioP1;P1;durP2;ratioP2;P2;SDS_P1;SDS_P2;PMS_P1;PMS_P2;Temp;Humidity;BMP_temperature;BMP_pressure;BME280_temperature;BME280_humidity;BME280_pressure;Samples;Min_cycle;Max_cycle;Signal;HPM_P1;HPM_P2
2024/04/06 00:01:36;;;;;;;;;1.00;1.00;;;;;23.32;46.49;100786.53;4938871;28;45386;-76
2024/04/06 00:04:02;;;;;;;;;2.00;2.00;;;;;23.17;46.56;100766.22;4939043;28;46379;-76
2024/04/06 00:06:27;;;;;;;;;0.67;0.67;;;;;23.25;46.60;100759.94;4939028;28;45411;-76
2024/04/06 00:08:53;;;;;;;;;1.00;1.00;;;;;23.32;46.87;100774.09;4939166;28;45395;-77
2024/04/06 00:11:18;;;;;;;;;1.67;1.67;;;;;23.34;46.25;100781.88;4939262;28;45385;-77
2024/04/06 00:13:44;;;;;;;;;2.00;1.00;;;;;23.33;46.14;100770.44;4938922;28;46166;-76
2024/04/06 00:16:10;;;;;;;;;1.00;1.00;;;;;23.34;46.67;100771.28;4938668;28;45396;-77
2024/04/06 00:18:35;;;;;;;;;0.67;0.67;;;;;23.34;46.35;100774.72;4939087;28;45366;-76
2024/04/06 00:21:01;;;;;;;;;1.33;1.00;;;;;23.34;46.68;100764.09;4938694;28;45435;-76
2024/04/06 00:23:28;;;;;;;;;2.67;2.67;;;;;23.33;46.33;100761.66;4938982;28;46021;-76
2024/04/06 00:25:53;;;;;;;;;0.00;0.00;;;;;23.34;46.23;100760.66;4938823;28;45216;-76
2024/04/06 00:28:19;;;;;;;;;1.00;1.00;;;;;23.32;46.52;100752.88;4938669;28;45341;-76
2024/04/06 00:30:44;;;;;;;;;1.67;1.00;;;;;23.29;46.76;100751.41;4953598;28;45282;-75
2024/04/06 00:33:09;;;;;;;;;1.00;1.00;;;;;23.21;46.22;100721.53;4938712;28;46154;-77
2024/04/06 00:35:34;;;;;;;;;1.33;1.33;;;;;23.22;46.71;100728.47;4938811;28;45298;-76
2024/04/06 00:38:00;;;;;;;;;0.00;0.00;;;;;23.17;46.88;100716.59;4938602;28;45172;-76
2024/04/06 00:40:25;;;;;;;;;1.00;1.00;;;;;23.25;46.58;100728.09;4938642;28;45382;-76
2024/04/06 00:42:51;;;;;;;;;1.00;1.00;;;;;23.27;46.54;100734.03;4938674;28;46996;-74
2024/04/06 00:45:16;;;;;;;;;2.67;1.00;;;;;23.22;46.44;100717.84;4937954;28;45300;-74
2024/04/06 00:47:41;;;;;;;;;2.00;2.00;;;;;23.29;46.28;100719.56;4938869;28;45375;-76
2024/04/06 00:50:09;;;;;;;;;0.00;0.00;;;;;23.31;46.29;100727.34;4938716;28;45276;-76
2024/04/06 00:52:34;;;;;;;;;0.67;0.67;;;;;23.31;46.55;100730.00;4938623;28;47242;-77
2024/04/06 00:55:00;;;;;;;;;1.00;1.00;;;;;23.20;46.25;100717.22;4938460;28;45374;-76
2024/04/06 00:57:27;;;;;;;;;1.00;1.00;;;;;23.23;46.73;100720.34;4938664;28;45429;-75
2024/04/06 00:59:52;;;;;;;;;0.67;0.33;;;;;23.27;46.42;100726.06;4936930;28;45552;-76
2024/04/06 01:02:18;;;;;;;;;0.33;0.33;;;;;23.31;46.35;100716.72;4938164;28;46119;-75
2024/04/06 01:04:43;;;;;;;;;1.00;1.00;;;;;23.31;46.48;100715.91;4938414;28;45370;-76
2024/04/06 01:07:09;;;;;;;;;2.33;0.67;;;;;23.32;46.11;100701.59;4938384;28;45371;-77
2024/04/06 01:09:34;;;;;;;;;1.00;1.00;;;;;23.33;46.77;100695.28;4938501;28;45377;-77
2024/04/06 01:11:59;;;;;;;;;2.00;2.00;;;;;23.32;46.74;100688.31;4938255;28;45958;-77
2024/04/06 01:14:25;;;;;;;;;0.67;0.67;;;;;23.06;46.24;100650.78;4936659;28;45450;-76
2024/04/06 01:16:50;;;;;;;;;2.67;2.00;;;;;23.25;46.46;100694.41;4938351;28;45718;-76
2024/04/06 01:19:15;;;;;;;;;1.00;1.00;;;;;23.31;46.65;100692.84;4938351;28;45414;-76
2024/04/06 01:21:41;;;;;;;;;1.00;1.00;;;;;23.32;46.82;100683.00;4937896;28;46139;-77
2024/04/06 01:24:30;;;;;;;;;2.00;1.00;;;;;23.27;46.55;100660.53;4938165;28;45437;-76
2024/04/06 01:26:56;;;;;;;;;2.00;0.00;;;;;23.26;46.26;100661.53;4938139;28;45451;-76
2024/04/06 01:29:24;;;;;;;;;0.33;0.33;;;;;23.18;46.58;100638.66;4937735;28;45378;-77
2024/04/06 01:31:49;;;;;;;;;2.00;1.00;;;;;23.27;46.15;100649.91;4937872;28;46272;-76
2024/04/06 01:34:14;;;;;;;;;1.67;1.33;;;;;23.31;46.67;100657.50;4937864;28;45352;-76
2024/04/06 01:36:40;;;;;;;;;5.00;2.00;;;;;23.31;46.35;100663.63;4937819;28;45223;-77
2024/04/06 01:39:07;;;;;;;;;1.67;1.67;;;;;23.30;46.53;100654.03;4937808;28;45434;-77
2024/04/06 01:41:37;;;;;;;;;1.00;1.00;;;;;23.32;46.51;100657.28;4937693;28;47181;-76
2024/04/06 01:44:05;;;;;;;;;1.67;1.67;;;;;23.26;46.42;100639.50;4937511;28;45485;-77
2024/04/06 01:46:31;;;;;;;;;2.67;1.67;;;;;23.33;46.62;100647.50;4937758;28;45403;-76
2024/04/06 01:48:58;;;;;;;;;1.67;1.67;;;;;23.31;46.17;100647.72;4937715;28;45327;-76
2024/04/06 01:51:23;;;;;;;;;1.67;1.00;;;;;23.27;46.63;100638.47;4937561;28;45437;-76
2024/04/06 01:53:49;;;;;;;;;0.00;0.00;;;;;23.27;46.35;100636.66;4937603;28;45387;-76
2024/04/06 01:56:14;;;;;;;;;2.00;2.00;;;;;23.33;46.49;100642.19;4936798;28;45412;-78
2024/04/06 01:58:40;;;;;;;;;1.33;1.33;;;;;23.27;46.24;100627.84;4937280;28;45366;-76
2024/04/06 02:01:05;;;;;;;;;2.00;2.00;;;;;23.25;46.40;100620.09;4937621;28;47019;-76
2024/04/06 02:03:30;;;;;;;;;1.00;1.00;;;;;23.28;46.48;100619.72;4937803;28;45437;-77
2024/04/06 02:05:56;;;;;;;;;1.00;1.00;;;;;23.22;46.44;100607.22;4937711;28;45376;-76
2024/04/06 02:08:25;;;;;;;;;1.00;1.00;;;;;23.27;46.50;100615.41;4937407;28;45405;-76
2024/04/06 02:10:50;;;;;;;;;1.00;1.00;;;;;23.21;46.43;100599.47;4937350;28;45392;-76
2024/04/06 02:13:15;;;;;;;;;2.33;1.00;;;;;23.28;46.67;100619.72;4936966;28;45315;-76
2024/04/06 02:15:41;;;;;;;;;1.00;1.00;;;;;23.28;46.29;100618.91;4937536;28;45265;-76
2024/04/06 02:18:06;;;;;;;;;1.00;1.00;;;;;23.29;46.20;100621.34;4937523;28;45351;-77
2024/04/06 02:20:31;;;;;;;;;1.00;1.00;;;;;23.28;46.60;100625.03;4937201;28;46197;-76
2024/04/06 02:22:57;;;;;;;;;0.67;0.67;;;;;23.20;46.38;100601.28;4937365;28;45334;-76
2024/04/06 02:25:22;;;;;;;;;1.00;1.00;;;;;23.20;46.37;100597.81;4937352;28;45638;-76
2024/04/06 02:27:48;;;;;;;;;2.00;1.00;;;;;23.28;46.75;100609.09;4937004;28;45503;-76
2024/04/06 02:30:13;;;;;;;;;1.33;1.33;;;;;23.28;46.33;100608.28;4937136;28;46998;-76
2024/04/06 02:32:39;;;;;;;;;1.67;1.33;;;;;23.28;46.47;100598.47;4937211;28;45385;-76
2024/04/06 02:35:04;;;;;;;;;1.00;1.00;;;;;23.28;46.34;100595.81;4937468;28;46157;-76
2024/04/06 02:37:30;;;;;;;;;1.00;1.00;;;;;23.23;46.60;100579.66;4937034;28;45530;-76
2024/04/06 02:39:56;;;;;;;;;1.33;1.00;;;;;23.28;46.70;100581.72;4936899;28;46881;-76
2024/04/06 02:42:22;;;;;;;;;1.00;1.00;;;;;23.22;46.45;100567.41;4936673;28;45383;-76
2024/04/06 02:44:47;;;;;;;;;1.33;1.33;;;;;23.25;46.34;100574.97;4937228;28;45354;-76
2024/04/06 02:47:12;;;;;;;;;1.00;1.00;;;;;23.24;46.33;100572.50;4937057;28;45347;-76
2024/04/06 02:49:37;;;;;;;;;0.67;0.67;;;;;23.26;45.92;100568.63;4936945;28;45379;-76
2024/04/06 02:52:03;;;;;;;;;2.00;2.00;;;;;23.25;46.27;100567.00;4937198;28;45407;-76
2024/04/06 02:54:28;;;;;;;;;2.00;1.00;;;;;23.23;46.31;100552.31;4937205;28;45495;-77
2024/04/06 02:56:54;;;;;;;;;1.33;1.33;;;;;23.22;46.50;100548.81;4936663;28;45469;-76
2024/04/06 02:59:19;;;;;;;;;0.00;0.00;;;;;23.23;46.34;100523.94;4936774;28;47097;-76
2024/04/06 03:01:44;;;;;;;;;1.67;1.67;;;;;23.27;46.14;100522.50;4936795;28;45403;-76
2024/04/06 03:04:10;;;;;;;;;2.00;2.00;;;;;23.27;45.84;100517.19;4936951;28;45252;-76
2024/04/06 03:06:35;;;;;;;;;0.00;0.00;;;;;23.26;46.38;100520.06;4936835;28;45576;-77
2024/04/06 03:09:01;;;;;;;;;1.00;1.00;;;;;23.25;46.25;100521.06;4939211;28;46028;-77
2024/04/06 03:11:26;;;;;;;;;1.67;1.67;;;;;23.25;46.39;100513.94;4939691;28;45316;-76
2024/04/06 03:13:52;;;;;;;;;1.67;1.67;;;;;23.25;46.38;100516.59;4939974;28;45339;-76
2024/04/06 03:16:19;;;;;;;;;1.00;1.00;;;;;23.25;46.35;100511.28;4940048;28;45457;-76
2024/04/06 03:18:45;;;;;;;;;1.33;1.33;;;;;23.26;46.41;100504.94;4938641;28;45554;-76
2024/04/06 03:21:10;;;;;;;;;1.00;1.00;;;;;23.16;46.08;100491.25;4939741;28;45354;-76
2024/04/06 03:23:36;;;;;;;;;2.00;2.00;;;;;23.22;46.21;100503.69;4939944;28;45351;-77
2024/04/06 03:26:01;;;;;;;;;2.00;1.67;;;;;23.27;46.10;100503.09;4939576;28;45446;-77
2024/04/06 03:28:26;;;;;;;;;2.00;2.00;;;;;23.25;46.08;100492.69;4939745;28;46185;-76
2024/04/06 03:30:52;;;;;;;;;1.67;1.67;;;;;23.27;46.33;100490.66;4939774;28;45311;-76
2024/04/06 03:33:17;;;;;;;;;1.00;1.00;;;;;23.26;46.35;100499.63;4939903;28;45363;-76
2024/04/06 03:35:42;;;;;;;;;0.67;0.67;;;;;23.26;46.09;100494.31;4939825;28;45342;-76
2024/04/06 03:38:08;;;;;;;;;2.50;1.50;;;;;23.22;46.03;100490.44;4939408;28;46147;-76
2024/04/06 03:40:33;;;;;;;;;2.67;1.00;;;;;23.23;45.58;100480.63;4939103;28;45253;-76
2024/04/06 03:43:00;;;;;;;;;1.00;1.00;;;;;23.25;46.31;100476.78;4939772;28;45229;-76
2024/04/06 03:45:26;;;;;;;;;1.00;1.00;;;;;23.25;46.39;100462.69;4939720;28;45241;-75
2024/04/06 03:47:52;;;;;;;;;2.00;2.00;;;;;23.26;45.96;100469.63;4939173;28;45302;-76
2024/04/06 03:50:18;;;;;;;;;2.00;2.00;;;;;23.26;45.71;100466.97;4939155;28;45276;-76
2024/04/06 03:52:45;;;;;;;;;1.00;1.00;;;;;22.84;45.94;100397.00;4939697;28;45534;-76
2024/04/06 03:55:10;;;;;;;;;1.67;1.67;;;;;23.26;45.77;100448.41;4939099;28;45402;-76
2024/04/06 03:57:36;;;;;;;;;2.33;2.00;;;;;23.26;45.97;100445.75;4939123;28;45425;-76
2024/04/06 04:00:03;;;;;;;;;1.00;1.00;;;;;23.18;46.21;100446.75;4939404;28;45385;-76
2024/04/06 04:02:28;;;;;;;;;2.00;2.00;;;;;23.19;46.01;100445.69;4939287;28;45444;-76
2024/04/06 04:04:53;;;;;;;;;2.00;2.00;;;;;23.26;45.92;100454.50;4939301;28;45531;-76
2024/04/06 04:07:19;;;;;;;;;1.67;1.67;;;;;23.27;45.85;100460.63;4938989;28;47308;-76
2024/04/06 04:09:44;;;;;;;;;1.00;1.00;;;;;23.26;46.28;100459.81;4938908;28;45355;-77
2024/04/06 04:12:09;;;;;;;;;2.00;1.00;;;;;23.27;45.95;100452.69;4939193;28;45426;-76
2024/04/06 04:14:35;;;;;;;;;1.00;1.00;;;;;23.26;46.35;100446.53;4939280;28;45299;-76
2024/04/06 04:17:00;;;;;;;;;1.00;1.00;;;;;23.16;45.96;100438.16;4938964;28;45445;-76
2024/04/06 04:19:25;;;;;;;;;2.67;2.00;;;;;23.26;45.71;100438.56;4938411;28;45365;-76
2024/04/06 04:21:51;;;;;;;;;1.00;1.00;;;;;23.26;45.95;100446.53;4937615;28;45303;-76
2024/04/06 04:24:18;;;;;;;;;1.00;1.00;;;;;23.25;46.00;100444.09;4938701;28;45243;-75
2024/04/06 04:26:44;;;;;;;;;1.00;1.00;;;;;23.26;45.71;100440.44;4938780;28;47091;-76
2024/04/06 04:29:09;;;;;;;;;1.33;1.33;;;;;23.26;45.89;100443.09;4938676;28;45342;-76
2024/04/06 04:31:34;;;;;;;;;2.00;1.00;;;;;23.26;45.86;100440.44;4939150;28;45322;-76
2024/04/06 04:34:00;;;;;;;;;3.00;1.33;;;;;23.26;46.11;100445.75;4938916;28;45500;-76
2024/04/06 04:36:25;;;;;;;;;2.00;2.00;;;;;23.26;45.90;100440.44;4938500;28;45881;-75
2024/04/06 04:38:50;;;;;;;;;0.00;0.00;;;;;23.25;45.72;100447.56;4938312;28;45318;-76
2024/04/06 04:41:16;;;;;;;;;1.33;1.33;;;;;23.23;46.18;100436.34;4938771;28;45334;-76
2024/04/06 04:43:41;;;;;;;;;3.00;1.00;;;;;23.19;46.01;100429.78;4938801;28;45425;-76
2024/04/06 04:46:06;;;;;;;;;2.33;1.00;;;;;23.11;45.99;100419.34;4938741;28;45336;-75
2024/04/06 04:48:54;;;;;;;;;1.00;1.00;;;;;23.25;46.09;100439.63;4938407;28;45279;-75
2024/04/06 04:51:26;;;;;;;;;1.00;1.00;;;;;23.27;45.58;100442.88;4938168;28;45354;-76
2024/04/06 04:53:55;;;;;;;;;1.50;1.50;;;;;23.26;45.52;100438.56;4938531;28;45381;-76
2024/04/06 04:56:21;;;;;;;;;2.00;2.00;;;;;23.25;45.66;100429.00;4938311;28;46185;-76
2024/04/06 04:58:47;;;;;;;;;1.67;1.67;;;;;23.20;46.10;100430.59;4938375;28;45496;-76
2024/04/06 05:01:14;;;;;;;;;1.00;1.00;;;;;23.27;45.79;100428.78;4938553;28;45334;-76
2024/04/06 05:03:39;;;;;;;;;1.00;1.00;;;;;23.25;45.88;100426.34;4938277;28;45451;-77
2024/04/06 05:06:05;;;;;;;;;1.00;1.00;;;;;23.24;46.17;100432.66;4937858;28;45403;-76
2024/04/06 05:08:31;;;;;;;;;1.00;1.00;;;;;23.26;45.66;100430.63;4938068;28;45389;-76
2024/04/06 05:10:56;;;;;;;;;2.00;2.00;;;;;23.18;46.07;100418.38;4938268;28;45403;-76
2024/04/06 05:13:21;;;;;;;;;2.00;2.00;;;;;23.25;45.83;100426.34;4938292;28;45387;-76
2024/04/06 05:15:52;;;;;;;;;1.00;1.00;;;;;23.25;45.55;100431.66;4936735;28;47239;-76
2024/04/06 05:18:18;;;;;;;;;2.00;2.00;;;;;23.25;45.85;100414.91;4938012;28;45402;-76
2024/04/06 05:20:53;;;;;;;;;3.00;3.00;;;;;23.25;45.81;100413.06;4937778;28;45282;-76
2024/04/06 05:23:19;;;;;;;;;1.67;1.67;;;;;23.24;45.68;100413.25;4938129;28;45563;-76
2024/04/06 05:25:50;;;;;;;;;1.00;1.00;;;;;23.25;45.76;100398.97;4937907;28;46188;-76
2024/04/06 05:28:19;;;;;;;;;1.00;1.00;;;;;23.24;45.95;100395.50;4937766;28;45301;-76
2024/04/06 05:30:49;;;;;;;;;2.00;2.00;;;;;23.21;45.67;100392.44;4938088;28;45471;-76
2024/04/06 05:33:16;;;;;;;;;1.00;1.00;;;;;23.23;45.89;100401.84;4937928;28;45468;-76
2024/04/06 05:35:42;;;;;;;;;1.00;1.00;;;;;23.20;45.55;100385.50;4936032;28;46528;-76
2024/04/06 05:38:08;;;;;;;;;3.00;1.00;;;;;23.24;45.83;100398.16;4937613;28;45443;-76
2024/04/06 05:40:37;;;;;;;;;1.33;1.33;;;;;23.24;45.59;100382.22;4937720;28;45640;-76
2024/04/06 05:43:03;;;;;;;;;1.00;1.00;;;;;23.16;45.84;100380.56;4938020;28;45371;-76
2024/04/06 05:45:29;;;;;;;;;1.67;1.67;;;;;23.20;45.77;100373.03;4937610;28;47245;-77
2024/04/06 05:47:54;;;;;;;;;2.00;2.00;;;;;23.22;45.45;100375.47;4937684;28;45372;-76
2024/04/06 05:50:21;;;;;;;;;2.67;2.00;;;;;23.24;45.57;100379.56;4937427;28;45185;-76
2024/04/06 05:52:46;;;;;;;;;1.33;1.33;;;;;23.25;45.37;100367.94;4937691;28;45271;-76
2024/04/06 05:55:12;;;;;;;;;2.33;1.33;;;;;23.26;45.67;100348.34;4937496;28;45800;-76
2024/04/06 05:57:37;;;;;;;;;1.00;1.00;;;;;23.26;45.35;100360.81;4937637;28;45298;-76
2024/04/06 06:00:03;;;;;;;;;1.00;1.00;;;;;23.26;45.26;100364.25;4937832;28;45275;-76
2024/04/06 06:02:28;;;;;;;;;2.33;2.00;;;;;23.25;45.85;100362.66;4937633;28;45256;-76
2024/04/06 06:04:53;;;;;;;;;1.00;1.00;;;;;23.25;45.37;100370.59;4937153;28;45418;-76
2024/04/06 06:07:20;;;;;;;;;1.00;1.00;;;;;23.18;45.36;100341.41;4937390;28;45458;-76
2024/04/06 06:09:45;;;;;;;;;1.67;1.00;;;;;23.25;45.13;100367.94;4937545;28;45430;-76
2024/04/06 06:12:11;;;;;;;;;1.00;1.00;;;;;23.25;45.32;100383.06;4936857;28;45326;-76
2024/04/06 06:14:36;;;;;;;;;2.00;2.00;;;;;23.24;45.10;100360.19;4936947;28;45394;-75
2024/04/06 06:17:01;;;;;;;;;1.00;1.00;;;;;23.17;45.34;100355.69;4936727;28;45415;-77
2024/04/06 06:19:27;;;;;;;;;3.67;2.00;;;;;23.26;45.13;100355.50;4936366;28;45306;-76
2024/04/06 06:21:52;;;;;;;;;3.00;1.00;;;;;23.20;45.22;100349.16;4936867;28;45565;-76
2024/04/06 06:24:17;;;;;;;;;3.00;1.00;;;;;23.23;45.27;100339.97;4937105;28;47144;-76
2024/04/06 06:26:43;;;;;;;;;1.00;1.00;;;;;23.27;45.48;100352.66;4937020;28;45397;-75
2024/04/06 06:29:08;;;;;;;;;1.00;0.67;;;;;23.25;45.04;100348.56;4937288;28;45379;-75
2024/04/06 06:31:33;;;;;;;;;1.00;1.00;;;;;23.12;45.31;100349.34;4937431;28;45338;-76
2024/04/06 06:33:59;;;;;;;;;3.00;3.00;;;;;23.08;45.17;100348.94;4936775;28;46263;-76
2024/04/06 06:36:24;;;;;;;;;1.00;1.00;;;;;23.15;45.52;100341.81;4936971;28;45407;-76
2024/04/06 06:38:49;;;;;;;;;1.00;1.00;;;;;23.27;45.42;100365.09;4937174;28;45258;-75
2024/04/06 06:41:15;;;;;;;;;1.67;1.67;;;;;23.28;45.42;100353.47;4937172;28;45409;-75
2024/04/06 06:43:40;;;;;;;;;2.00;2.00;;;;;23.27;45.15;100350.00;4938954;28;46779;-76
2024/04/06 06:46:06;;;;;;;;;1.00;1.00;;;;;23.25;45.35;100344.06;4940478;28;45284;-75
2024/04/06 06:48:31;;;;;;;;;3.00;3.00;;;;;23.14;45.35;100321.56;4940105;28;45580;-77
2024/04/06 06:50:56;;;;;;;;;2.00;2.00;;;;;23.26;45.03;100352.84;4940303;28;45371;-76
2024/04/06 06:53:22;;;;;;;;;3.00;1.00;;;;;23.27;45.51;100344.69;4938971;28;45908;-75
2024/04/06 06:55:47;;;;;;;;;1.00;1.00;;;;;23.29;45.19;100377.16;4940381;28;45390;-75
2024/04/06 06:58:12;;;;;;;;;1.00;1.00;;;;;23.29;44.92;100377.16;4940272;28;45279;-75
2024/04/06 07:00:38;;;;;;;;;2.00;2.00;;;;;23.31;45.44;100360.22;4940329;28;45388;-76
2024/04/06 07:03:04;;;;;;;;;2.00;1.00;;;;;23.31;45.00;100376.97;4939706;28;45938;-75
2024/04/06 07:05:29;;;;;;;;;2.00;1.33;;;;;23.32;44.97;100385.72;4940053;28;45535;-75
2024/04/06 07:07:58;;;;;;;;;1.67;1.67;;;;;23.33;45.02;100366.13;4940267;28;45372;-75
2024/04/06 07:10:23;;;;;;;;;1.00;1.00;;;;;23.33;44.79;100382.06;4940110;28;45409;-76
2024/04/06 07:12:49;;;;;;;;;2.00;1.00;;;;;23.33;45.20;100380.22;4939815;28;46280;-75
2024/04/06 07:15:14;;;;;;;;;1.00;1.00;;;;;23.26;45.17;100371.44;4939894;28;45353;-75
2024/04/06 07:17:39;;;;;;;;;3.00;1.67;;;;;23.28;44.97;100364.91;4939576;28;45314;-77
2024/04/06 07:20:05;;;;;;;;;2.00;2.00;;;;;23.19;44.87;100366.09;4940176;28;45252;-75
2024/04/06 07:22:30;;;;;;;;;1.00;1.00;;;;;23.32;45.23;100381.22;4939482;28;45964;-76
2024/04/06 07:24:56;;;;;;;;;2.33;2.00;;;;;22.95;45.02;100321.31;4939834;28;45378;-75
2024/04/06 07:27:21;;;;;;;;;1.00;1.00;;;;;23.33;44.74;100371.44;4939815;28;45257;-75
2024/04/06 07:29:48;;;;;;;;;1.00;1.00;;;;;23.25;45.16;100351.22;4939898;28;45228;-75
2024/04/06 07:32:13;;;;;;;;;1.67;1.67;;;;;23.24;45.20;100368.97;4939345;28;45278;-76
2024/04/06 07:34:38;;;;;;;;;1.00;1.00;;;;;23.25;45.21;100364.47;4939722;28;45553;-76
2024/04/06 07:37:04;;;;;;;;;1.33;1.33;;;;;23.21;44.79;100358.78;4954467;28;45871;-76
2024/04/06 07:39:30;;;;;;;;;2.33;2.00;;;;;23.31;45.18;100368.16;4939468;28;45418;-76
2024/04/06 07:41:55;;;;;;;;;1.00;1.00;;;;;23.33;45.05;100366.13;4939475;28;46906;-75
2024/04/06 07:44:20;;;;;;;;;2.00;2.00;;;;;23.20;44.79;100359.78;4939526;28;45330;-76
2024/04/06 07:46:46;;;;;;;;;3.00;1.00;;;;;23.33;44.85;100379.41;4939413;28;45315;-76
2024/04/06 07:49:11;;;;;;;;;2.33;2.33;;;;;23.34;44.97;100387.16;4939430;28;45354;-76
2024/04/06 07:51:36;;;;;;;;;1.00;1.00;;;;;23.33;44.56;100356.34;4939385;28;45449;-76
2024/04/06 07:54:02;;;;;;;;;2.00;2.00;;;;;23.03;44.70;100316.88;4938472;28;45379;-75
2024/04/06 07:56:27;;;;;;;;;2.00;2.00;;;;;23.23;44.93;100356.72;4939196;28;45469;-75
2024/04/06 07:58:53;;;;;;;;;2.00;2.00;;;;;23.27;45.24;100357.13;4939337;28;45339;-75
2024/04/06 08:01:18;;;;;;;;;1.00;1.00;;;;;23.34;44.69;100355.31;4938959;28;47253;-76
2024/04/06 08:03:44;;;;;;;;;1.00;1.00;;;;;23.35;44.91;100372.88;4939368;28;45406;-76
2024/04/06 08:06:09;;;;;;;;;3.00;2.00;;;;;23.36;44.68;100371.03;4939218;28;45312;-76
2024/04/06 08:08:35;;;;;;;;;1.00;1.00;;;;;23.00;44.74;100322.56;4939223;28;45300;-76
2024/04/06 08:11:01;;;;;;;;;2.00;2.00;;;;;23.35;44.79;100377.34;4939007;28;46223;-76
2024/04/06 08:13:27;;;;;;;;;1.00;1.00;;;;;23.35;44.82;100366.75;4939034;28;45375;-76
2024/04/06 08:15:52;;;;;;;;;1.00;1.00;;;;;23.13;44.34;100349.16;4938733;28;45612;-75
2024/04/06 08:18:17;;;;;;;;;1.00;1.00;;;;;23.29;44.77;100350.59;4939148;28;45397;-76
2024/04/06 08:20:43;;;;;;;;;1.33;1.33;;;;;23.27;44.64;100336.72;4938714;28;45971;-76
2024/04/06 08:23:08;;;;;;;;;3.67;2.00;;;;;23.35;44.37;100378.19;4937689;28;45378;-75
2024/04/06 08:25:33;;;;;;;;;1.00;1.00;;;;;23.34;44.60;100325.31;4939267;28;45420;-76
2024/04/06 08:27:59;;;;;;;;;2.00;2.00;;;;;23.26;44.79;100340.38;4938845;28;45481;-76
2024/04/06 08:30:24;;;;;;;;;3.00;2.67;;;;;23.33;44.82;100351.03;4938496;28;46121;-75
2024/04/06 08:32:56;;;;;;;;;1.67;1.67;;;;;23.35;44.55;100348.97;4938929;28;45278;-76
2024/04/06 08:35:21;;;;;;;;;1.00;1.00;;;;;23.37;44.36;100365.53;4938974;28;45202;-75
2024/04/06 08:37:47;;;;;;;;;3.00;2.00;;;;;23.33;44.48;100348.38;4938572;28;45279;-76
2024/04/06 08:40:16;;;;;;;;;2.00;2.00;;;;;23.38;44.73;100366.34;4938445;28;45270;-77
2024/04/06 08:42:43;;;;;;;;;3.67;2.00;;;;;23.38;44.71;100372.47;4938687;28;45342;-75
2024/04/06 08:45:10;;;;;;;;;2.67;2.67;;;;;23.36;44.73;100369.22;4938195;28;45327;-77
2024/04/06 08:47:36;;;;;;;;;1.33;1.33;;;;;23.32;44.85;100357.34;4937830;28;45501;-75
2024/04/06 08:50:06;;;;;;;;;1.00;1.00;;;;;23.34;44.65;100354.50;4937852;28;47238;-79
2024/04/06 08:52:37;;;;;;;;;1.00;1.00;;;;;23.38;44.72;100364.50;4937583;28;45556;-80
2024/04/06 08:55:08;;;;;;;;;1.00;1.00;;;;;23.39;44.72;100366.13;4938290;28;45291;-79
2024/04/06 08:57:38;;;;;;;;;1.00;1.00;;;;;23.39;44.58;100382.06;4938277;28;45430;-78
2024/04/06 09:00:07;;;;;;;;;1.00;1.00;;;;;23.37;44.90;100360.22;4938101;28;45293;-76
2024/04/06 09:02:33;;;;;;;;;2.00;1.33;;;;;23.34;44.98;100371.22;4938269;28;45333;-77
2024/04/06 09:04:59;;;;;;;;;0.00;0.00;;;;;23.44;44.86;100378.81;4938184;28;45330;-75
2024/04/06 09:07:24;;;;;;;;;3.00;2.00;;;;;23.37;44.59;100357.56;4937876;28;45489;-76
2024/04/06 09:09:50;;;;;;;;;1.00;1.00;;;;;23.38;44.98;100353.06;4938001;28;46410;-75
2024/04/06 09:12:15;;;;;;;;;1.67;1.67;;;;;23.44;45.05;100384.13;4937752;28;45339;-77
2024/04/06 09:14:42;;;;;;;;;2.00;2.00;;;;;23.43;44.91;100384.31;4938341;28;45268;-77
2024/04/06 09:17:07;;;;;;;;;0.33;0.33;;;;;23.31;44.92;100381.44;4938142;28;45255;-77
2024/04/06 09:19:33;;;;;;;;;2.00;2.00;;;;;23.46;44.93;100413.13;4937794;28;46069;-79
2024/04/06 09:21:58;;;;;;;;;1.00;1.00;;;;;23.47;44.41;100407.59;4937105;28;45344;-74
2024/04/06 09:24:27;;;;;;;;;1.33;1.00;;;;;23.40;45.15;100406.78;4938189;28;45352;-75
2024/04/06 09:27:04;;;;;;;;;1.00;1.00;;;;;23.47;44.96;100414.78;4937719;28;45404;-76
2024/04/06 09:29:29;;;;;;;;;1.00;1.00;;;;;23.41;45.21;100413.72;4951527;28;46160;-80
2024/04/06 09:32:00;;;;;;;;;2.67;2.00;;;;;23.49;45.14;100426.00;4937194;28;45363;-76
2024/04/06 09:34:26;;;;;;;;;2.00;2.00;;;;;23.50;44.75;100433.78;4937979;28;45418;-76
2024/04/06 09:37:07;;;;;;;;;1.00;1.00;;;;;22.84;44.78;100349.25;4937698;28;45452;-77
2024/04/06 09:39:34;;;;;;;;;2.33;2.33;;;;;23.50;45.15;100443.59;4937327;28;46792;-76
2024/04/06 09:42:00;;;;;;;;;1.00;1.00;;;;;23.47;44.98;100438.66;4937341;28;45395;-77
2024/04/06 09:44:30;;;;;;;;;2.00;2.00;;;;;23.49;44.78;100441.94;4936493;28;45479;-76
2024/04/06 09:46:55;;;;;;;;;2.00;2.00;;;;;23.02;44.80;100387.69;4937579;28;45530;-77
2024/04/06 09:49:24;;;;;;;;;1.00;1.00;;;;;23.24;44.81;100415.91;4937587;28;45383;-77
2024/04/06 09:51:53;;;;;;;;;2.00;2.00;;;;;23.48;44.78;100456.22;4937641;28;45466;-76
2024/04/06 09:54:20;;;;;;;;;1.00;1.00;;;;;23.48;45.05;100470.31;4937615;28;45296;-77
2024/04/06 09:56:49;;;;;;;;;1.00;1.00;;;;;23.50;44.94;100470.97;4937359;28;45247;-77
2024/04/06 09:59:21;;;;;;;;;1.00;1.00;;;;;23.54;44.61;100465.25;4937479;28;45871;-77
2024/04/06 10:01:46;;;;;;;;;2.67;2.00;;;;;23.45;44.99;100457.44;4937526;28;45408;-77
2024/04/06 10:04:25;;;;;;;;;2.00;2.00;;;;;23.46;44.79;100448.47;4937503;28;45356;-77
2024/04/06 10:06:54;;;;;;;;;0.00;0.00;;;;;23.53;45.09;100464.44;4937402;28;45446;-77
2024/04/06 10:09:20;;;;;;;;;2.00;2.00;;;;;23.28;44.81;100428.59;4937148;28;46264;-76
2024/04/06 10:11:45;;;;;;;;;1.00;1.00;;;;;22.36;44.93;100287.19;4936952;28;45454;-77
2024/04/06 10:14:11;;;;;;;;;1.00;1.00;;;;;23.48;44.75;100464.19;4937578;28;45572;-77
2024/04/06 10:16:41;;;;;;;;;1.00;1.00;;;;;23.56;44.94;100476.50;4937404;28;45505;-78
2024/04/06 10:19:08;;;;;;;;;1.00;1.00;;;;;23.55;44.91;100483.63;4940063;28;47312;-77
2024/04/06 10:21:41;;;;;;;;;1.00;1.00;;;;;23.55;44.80;100496.13;4940537;28;45530;-78
2024/04/06 10:24:12;;;;;;;;;1.33;1.33;;;;;23.41;44.83;100456.22;4940901;28;45365;-76
2024/04/06 10:26:53;;;;;;;;;1.00;1.00;;;;;22.36;44.92;100305.75;4940575;28;45306;-77
2024/04/06 10:29:20;;;;;;;;;1.33;1.33;;;;;23.47;44.76;100481.94;4940384;28;46503;-77
2024/04/06 10:31:45;;;;;;;;;1.00;1.00;;;;;23.57;44.90;100486.09;4940611;28;45469;-77
2024/04/06 10:34:10;;;;;;;;;1.67;1.67;;;;;23.56;44.77;100487.13;4940719;28;45390;-78
2024/04/06 10:36:36;;;;;;;;;2.00;2.00;;;;;23.56;44.81;100492.44;4940470;28;45366;-77
2024/04/06 10:39:04;;;;;;;;;1.00;1.00;;;;;23.53;45.07;100493.66;4940295;28;46175;-78
2024/04/06 10:41:31;;;;;;;;;1.00;1.00;;;;;23.55;44.91;100498.78;4940166;28;45385;-77
2024/04/06 10:43:58;;;;;;;;;1.00;1.00;;;;;23.38;45.13;100494.59;4940525;28;45321;-77
2024/04/06 10:46:23;;;;;;;;;1.00;1.00;;;;;23.55;45.07;100515.50;4940326;28;45479;-77
2024/04/06 10:48:49;;;;;;;;;2.00;2.00;;;;;23.57;45.07;100534.72;4940115;28;47102;-75
2024/04/06 10:51:14;;;;;;;;;1.33;1.33;;;;;23.50;44.79;100529.38;4939025;28;45304;-78
2024/04/06 10:53:40;;;;;;;;;2.00;1.00;;;;;23.45;44.69;100529.13;4940484;28;45244;-78
2024/04/06 10:56:06;;;;;;;;;1.67;1.67;;;;;23.51;44.85;100527.56;4939950;28;45565;-77
2024/04/06 10:58:31;;;;;;;;;1.00;0.67;;;;;23.40;44.79;100515.63;4940041;28;46241;-79
2024/04/06 11:00:57;;;;;;;;;2.33;1.00;;;;;23.49;44.94;100543.69;4940180;28;45197;-81
2024/04/06 11:03:22;;;;;;;;;3.00;1.00;;;;;23.58;44.87;100554.13;4939906;28;45244;-79
2024/04/06 11:05:48;;;;;;;;;1.00;1.00;;;;;23.58;44.81;100549.63;4940060;28;45299;-79
2024/04/06 11:08:13;;;;;;;;;2.00;2.00;;;;;23.46;44.59;100541.41;4939777;28;45339;-79
2024/04/06 11:10:39;;;;;;;;;0.33;0.33;;;;;23.47;44.89;100536.91;4939739;28;45292;-79
2024/04/06 11:13:04;;;;;;;;;2.00;2.00;;;;;23.52;45.08;100545.13;4938872;28;45560;-79
2024/04/06 11:15:30;;;;;;;;;2.33;1.00;;;;;23.61;44.88;100573.16;4939697;28;45504;-79
2024/04/06 11:17:57;;;;;;;;;1.33;1.33;;;;;23.62;44.74;100558.03;4939772;28;45916;-78
2024/04/06 11:20:23;;;;;;;;;1.00;1.00;;;;;23.61;44.85;100559.03;4939621;28;45493;-78